sensor_id;sensor_type;location;lat;lon;timestamp;pressure;altitude;pressure_sealevel;temperature;humidity
70015;BME280;57358;51.094;6.760;2023-04-21T00:00:52;100891.28;;;6.70;100.00
70015;BME280;57358;51.094;6.760;2023-04-21T00:03:19;100781.56;;;5.96;100.00
70015;BME280;57358;51.094;6.760;2023-04-21T00:05:48;100882.06;;;6.60;100.00
70015;BME280;57358;51.094;6.760;2023-04-21T00:08:17;100882.84;;;6.62;100.00
70015;BME280;57358;51.094;6.760;2023-04-21T00:10:44;100811.91;;;6.26;100.00
70015;BME280;57358;51.094;6.760;2023-04-21T00:13:12;100851.78;;;6.56;100.00
70015;BME280;57358;51.094;6.760;2023-04-21T00:15:39;100759.13;;;5.91;100.00
70015;BME280;57358;51.094;6.760;2023-04-21T00:18:07;100843.91;;;6.57;100.00
70015;BME280;57358;51.094;6.760;2023-04-21T00:20:35;100861.94;;;6.64;100.00
70015;BME280;57358;51.094;6.760;2023-04-21T00:23:02;100809.16;;;6.30;100.00
70015;BME280;57358;51.094;6.760;2023-04-21T00:25:29;100830.53;;;6.42;100.00
70015;BME280;57358;51.094;6.760;2023-04-21T00:27:55;100862.88;;;6.61;100.00
70015;BME280;57358;51.094;6.760;2023-04-21T00:30:21;100856.78;;;6.62;100.00
70015;BME280;57358;51.094;6.760;2023-04-21T00:32:48;100865.41;;;6.64;100.00
70015;BME280;57358;51.094;6.760;2023-04-21T00:35:14;100795.31;;;6.28;100.00
70015;BME280;57358;51.094;6.760;2023-04-21T00:37:41;100853.16;;;6.66;100.00
70015;BME280;57358;51.094;6.760;2023-04-21T00:40:08;100847.03;;;6.67;100.00
70015;BME280;57358;51.094;6.760;2023-04-21T00:42:35;100670.94;;;5.53;100.00
70015;BME280;57358;51.094;6.760;2023-04-21T00:45:03;100741.53;;;5.99;100.00
70015;BME280;57358;51.094;6.760;2023-04-21T00:47:29;100783.13;;;6.29;100.00
70015;BME280;57358;51.094;6.760;2023-04-21T00:49:59;100828.38;;;6.53;100.00
70015;BME280;57358;51.094;6.760;2023-04-21T00:52:27;100841.72;;;6.70;100.00
70015;BME280;57358;51.094;6.760;2023-04-21T00:54:54;100731.06;;;6.01;100.00
70015;BME280;57358;51.094;6.760;2023-04-21T00:57:21;100843.63;;;6.65;100.00
70015;BME280;57358;51.094;6.760;2023-04-21T00:59:48;100822.38;;;6.51;100.00
70015;BME280;57358;51.094;6.760;2023-04-21T01:02:15;100834.41;;;6.55;100.00
70015;BME280;57358;51.094;6.760;2023-04-21T01:04:43;100834.16;;;6.63;100.00
70015;BME280;57358;51.094;6.760;2023-04-21T01:07:10;100777.91;;;6.29;100.00
70015;BME280;57358;51.094;6.760;2023-04-21T01:09:37;100795.72;;;6.43;100.00
70015;BME280;57358;51.094;6.760;2023-04-21T01:14:31;100842.69;;;6.68;100.00
70015;BME280;57358;51.094;6.760;2023-04-21T01:16:57;100771.22;;;6.22;100.00
70015;BME280;57358;51.094;6.760;2023-04-21T01:19:25;100840.94;;;6.68;100.00
70015;BME280;57358;51.094;6.760;2023-04-21T01:21:53;100775.22;;;6.32;100.00
70015;BME280;57358;51.094;6.760;2023-04-21T01:24:23;100833.16;;;6.67;100.00
70015;BME280;57358;51.094;6.760;2023-04-21T01:26:52;100833.16;;;6.67;100.00
70015;BME280;57358;51.094;6.760;2023-04-21T01:29:19;100827.94;;;6.67;100.00
70015;BME280;57358;51.094;6.760;2023-04-21T01:31:45;100818.72;;;6.56;100.00
70015;BME280;57358;51.094;6.760;2023-04-21T01:34:13;100828.84;;;6.66;100.00
70015;BME280;57358;51.094;6.760;2023-04-21T01:36:39;100804.38;;;6.43;100.00
70015;BME280;57358;51.094;6.760;2023-04-21T01:39:06;100824.56;;;6.63;100.00
70015;BME280;57358;51.094;6.760;2023-04-21T01:41:32;100826.28;;;6.64;100.00
70015;BME280;57358;51.094;6.760;2023-04-21T01:43:59;100805.84;;;6.52;100.00
70015;BME280;57358;51.094;6.760;2023-04-21T01:46:26;100831.50;;;6.64;100.00
70015;BME280;57358;51.094;6.760;2023-04-21T01:48:53;100834.91;;;6.66;100.00
70015;BME280;57358;51.094;6.760;2023-04-21T01:51:19;100834.88;;;6.68;100.00
70015;BME280;57358;51.094;6.760;2023-04-21T01:53:46;100836.50;;;6.70;100.00
70015;BME280;57358;51.094;6.760;2023-04-21T01:56:13;100841.69;;;6.72;100.00
70015;BME280;57358;51.094;6.760;2023-04-21T01:58:40;100818.69;;;6.58;100.00
70015;BME280;57358;51.094;6.760;2023-04-21T02:01:06;100845.94;;;6.74;100.00
70015;BME280;57358;51.094;6.760;2023-04-21T02:03:33;100854.59;;;6.75;100.00
70015;BME280;57358;51.094;6.760;2023-04-21T02:06:00;100830.75;;;6.61;100.00
70015;BME280;57358;51.094;6.760;2023-04-21T02:08:26;100643.19;;;5.52;100.00
70015;BME280;57358;51.094;6.760;2023-04-21T02:10:52;100831.28;;;6.70;100.00
70015;BME280;57358;51.094;6.760;2023-04-21T02:13:19;100861.28;;;6.84;100.00
70015;BME280;57358;51.094;6.760;2023-04-21T02:15:45;100797.34;;;6.45;100.00
70015;BME280;57358;51.094;6.760;2023-04-21T02:18:11;100752.66;;;6.31;100.00
70015;BME280;57358;51.094;6.760;2023-04-21T02:20:38;100853.34;;;6.87;100.00
70015;BME280;57358;51.094;6.760;2023-04-21T02:23:05;100827.72;;;6.73;100.00
70015;BME280;57358;51.094;6.760;2023-04-21T02:25:31;100845.72;;;6.81;100.00
70015;BME280;57358;51.094;6.760;2023-04-21T02:27:57;100849.28;;;6.78;100.00
70015;BME280;57358;51.094;6.760;2023-04-21T02:30:24;100843.31;;;6.74;100.00
70015;BME280;57358;51.094;6.760;2023-04-21T02:32:50;100835.53;;;6.73;100.00
70015;BME280;57358;51.094;6.760;2023-04-21T02:35:17;100840.81;;;6.71;100.00
70015;BME280;57358;51.094;6.760;2023-04-21T02:37:43;100844.41;;;6.67;100.00
70015;BME280;57358;51.094;6.760;2023-04-21T02:40:10;100837.59;;;6.63;100.00
70015;BME280;57358;51.094;6.760;2023-04-21T02:42:36;100778.13;;;6.23;100.00
70015;BME280;57358;51.094;6.760;2023-04-21T02:45:03;100838.81;;;6.53;100.00
70015;BME280;57358;51.094;6.760;2023-04-21T02:47:30;100831.25;;;6.45;100.00
70015;BME280;57358;51.094;6.760;2023-04-21T02:49:56;100781.19;;;6.09;100.00
70015;BME280;57358;51.094;6.760;2023-04-21T02:52:22;100839.44;;;6.34;100.00
70015;BME280;57358;51.094;6.760;2023-04-21T02:54:49;100844.03;;;6.26;100.00
70015;BME280;57358;51.094;6.760;2023-04-21T02:57:16;100840.06;;;6.14;100.00
70015;BME280;57358;51.094;6.760;2023-04-21T02:59:42;100860.91;;;6.14;100.00
70015;BME280;57358;51.094;6.760;2023-04-21T03:02:09;100837.94;;;5.99;100.00
70015;BME280;57358;51.094;6.760;2023-04-21T03:04:35;100768.94;;;5.54;100.00
70015;BME280;57358;51.094;6.760;2023-04-21T03:07:03;100851.06;;;5.94;100.00
70015;BME280;57358;51.094;6.760;2023-04-21T03:09:29;100856.47;;;5.88;100.00
70015;BME280;57358;51.094;6.760;2023-04-21T03:11:55;100803.19;;;5.40;100.00
70015;BME280;57358;51.094;6.760;2023-04-21T03:14:22;100803.34;;;5.36;100.00
70015;BME280;57358;51.094;6.760;2023-04-21T03:16:48;100804.09;;;5.39;100.00
70015;BME280;57358;51.094;6.760;2023-04-21T03:19:15;100858.91;;;5.65;100.00
70015;BME280;57358;51.094;6.760;2023-04-21T03:21:41;100864.09;;;5.65;100.00
70015;BME280;57358;51.094;6.760;2023-04-21T03:24:08;100659.50;;;4.42;100.00
70015;BME280;57358;51.094;6.760;2023-04-21T03:26:34;100853.72;;;5.63;100.00
70015;BME280;57358;51.094;6.760;2023-04-21T03:29:01;100871.72;;;5.71;100.00
70015;BME280;57358;51.094;6.760;2023-04-21T03:31:27;100865.66;;;5.72;100.00
70015;BME280;57358;51.094;6.760;2023-04-21T03:33:53;100765.13;;;5.07;100.00
70015;BME280;57358;51.094;6.760;2023-04-21T03:36:20;100826.94;;;5.30;100.00
70015;BME280;57358;51.094;6.760;2023-04-21T03:38:46;100866.06;;;5.56;100.00
70015;BME280;57358;51.094;6.760;2023-04-21T03:41:13;100778.28;;;5.02;100.00
70015;BME280;57358;51.094;6.760;2023-04-21T03:43:39;100822.88;;;5.19;100.00
70015;BME280;57358;51.094;6.760;2023-04-21T03:46:06;100877.41;;;5.55;100.00
70015;BME280;57358;51.094;6.760;2023-04-21T03:48:32;100877.34;;;5.57;100.00
70015;BME280;57358;51.094;6.760;2023-04-21T03:50:59;100806.47;;;5.17;100.00
70015;BME280;57358;51.094;6.760;2023-04-21T03:53:25;100658.16;;;4.27;100.00
70015;BME280;57358;51.094;6.760;2023-04-21T03:55:52;100873.66;;;5.64;100.00
70015;BME280;57358;51.094;6.760;2023-04-21T03:58:18;100882.25;;;5.68;100.00
70015;BME280;57358;51.094;6.760;2023-04-21T04:00:45;100862.50;;;5.60;100.00
70015;BME280;57358;51.094;6.760;2023-04-21T04:03:11;100869.22;;;5.68;100.00
70015;BME280;57358;51.094;6.760;2023-04-21T04:05:38;100865.09;;;5.60;100.00
70015;BME280;57358;51.094;6.760;2023-04-21T04:08:04;100875.53;;;5.59;100.00
70015;BME280;57358;51.094;6.760;2023-04-21T04:10:31;100820.28;;;5.19;100.00
70015;BME280;57358;51.094;6.760;2023-04-21T04:12:58;100869.78;;;5.49;100.00
70015;BME280;57358;51.094;6.760;2023-04-21T04:15:24;100874.25;;;5.44;100.00
70015;BME280;57358;51.094;6.760;2023-04-21T04:17:50;100767.75;;;4.75;100.00
70015;BME280;57358;51.094;6.760;2023-04-21T04:20:17;100870.16;;;5.35;100.00
70015;BME280;57358;51.094;6.760;2023-04-21T04:22:43;100872.81;;;5.32;100.00
70015;BME280;57358;51.094;6.760;2023-04-21T04:25:10;100875.53;;;5.29;100.00
70015;BME280;57358;51.094;6.760;2023-04-21T04:27:38;100805.84;;;4.76;100.00
70015;BME280;57358;51.094;6.760;2023-04-21T04:30:04;100877.41;;;5.23;100.00
70015;BME280;57358;51.094;6.760;2023-04-21T04:32:31;100880.06;;;5.21;100.00
70015;BME280;57358;51.094;6.760;2023-04-21T04:35:01;100797.34;;;4.70;100.00
70015;BME280;57358;51.094;6.760;2023-04-21T04:37:27;100875.72;;;5.22;100.00
70015;BME280;57358;51.094;6.760;2023-04-21T04:39:54;100873.16;;;5.20;100.00
70015;BME280;57358;51.094;6.760;2023-04-21T04:42:20;100869.91;;;5.12;100.00
70015;BME280;57358;51.094;6.760;2023-04-21T04:44:46;100878.44;;;5.17;100.00
70015;BME280;57358;51.094;6.760;2023-04-21T04:47:13;100884.44;;;5.19;100.00
70015;BME280;57358;51.094;6.760;2023-04-21T04:49:39;100877.41;;;5.23;100.00
70015;BME280;57358;51.094;6.760;2023-04-21T04:52:06;100859.22;;;5.23;100.00
70015;BME280;57358;51.094;6.760;2023-04-21T04:54:33;100877.97;;;5.35;100.00
70015;BME280;57358;51.094;6.760;2023-04-21T04:57:00;100882.19;;;5.39;100.00
70015;BME280;57358;51.094;6.760;2023-04-21T04:59:26;100883.81;;;5.44;100.00
70015;BME280;57358;51.094;6.760;2023-04-21T05:01:55;100874.28;;;5.43;100.00
70015;BME280;57358;51.094;6.760;2023-04-21T05:04:22;100877.41;;;5.55;100.00
70015;BME280;57358;51.094;6.760;2023-04-21T05:06:49;100803.81;;;5.19;100.00
70015;BME280;57358;51.094;6.760;2023-04-21T05:09:16;100892.31;;;5.80;100.00
70015;BME280;57358;51.094;6.760;2023-04-21T05:11:42;100875.66;;;5.86;100.00
70015;BME280;57358;51.094;6.760;2023-04-21T05:14:08;100880.28;;;6.06;100.00
70015;BME280;57358;51.094;6.760;2023-04-21T05:16:35;100895.25;;;6.27;100.00
70015;BME280;57358;51.094;6.760;2023-04-21T05:19:02;100917.63;;;6.34;100.00
70015;BME280;57358;51.094;6.760;2023-04-21T05:21:29;100901.84;;;6.39;100.00
70015;BME280;57358;51.094;6.760;2023-04-21T05:23:57;100900.94;;;6.40;100.00
70015;BME280;57358;51.094;6.760;2023-04-21T05:26:25;100902.72;;;6.39;100.00
70015;BME280;57358;51.094;6.760;2023-04-21T05:28:53;100906.91;;;6.44;100.00
70015;BME280;57358;51.094;6.760;2023-04-21T05:31:21;100894.50;;;6.52;100.00
70015;BME280;57358;51.094;6.760;2023-04-21T05:33:48;100926.28;;;6.63;100.00
70015;BME280;57358;51.094;6.760;2023-04-21T05:36:15;100905.31;;;6.66;100.00
70015;BME280;57358;51.094;6.760;2023-04-21T05:38:42;100902.47;;;6.74;100.00
70015;BME280;57358;51.094;6.760;2023-04-21T05:41:08;100901.66;;;6.72;100.00
70015;BME280;57358;51.094;6.760;2023-04-21T05:43:35;100715.75;;;5.63;100.00
70015;BME280;57358;51.094;6.760;2023-04-21T05:46:02;100900.94;;;6.93;100.00
70015;BME280;57358;51.094;6.760;2023-04-21T05:48:34;100783.91;;;6.06;100.00
70015;BME280;57358;51.094;6.760;2023-04-21T05:51:13;100907.38;;;6.83;100.00
70015;BME280;57358;51.094;6.760;2023-04-21T05:53:42;100908.13;;;6.87;100.00
70015;BME280;57358;51.094;6.760;2023-04-21T05:56:09;100903.03;;;6.84;100.00
70015;BME280;57358;51.094;6.760;2023-04-21T05:58:36;100898.75;;;6.81;100.00
70015;BME280;57358;51.094;6.760;2023-04-21T06:01:03;100908.38;;;6.79;100.00
70015;BME280;57358;51.094;6.760;2023-04-21T06:03:30;100887.06;;;6.66;100.00
70015;BME280;57358;51.094;6.760;2023-04-21T06:06:01;100903.81;;;6.86;100.00
70015;BME280;57358;51.094;6.760;2023-04-21T06:08:28;100895.03;;;6.88;100.00
70015;BME280;57358;51.094;6.760;2023-04-21T06:10:54;100899.41;;;6.88;100.00
70015;BME280;57358;51.094;6.760;2023-04-21T06:13:21;100843.50;;;6.70;100.00
70015;BME280;57358;51.094;6.760;2023-04-21T06:15:47;100843.16;;;6.79;100.00
70015;BME280;57358;51.094;6.760;2023-04-21T06:18:13;100895.69;;;7.20;100.00
70015;BME280;57358;51.094;6.760;2023-04-21T06:20:41;100899.78;;;7.27;100.00
70015;BME280;57358;51.094;6.760;2023-04-21T06:23:07;100877.78;;;7.34;100.00
70015;BME280;57358;51.094;6.760;2023-04-21T06:25:34;100880.03;;;7.44;100.00
70015;BME280;57358;51.094;6.760;2023-04-21T06:28:01;100891.41;;;7.43;100.00
70015;BME280;57358;51.094;6.760;2023-04-21T06:30:28;100897.19;;;7.51;100.00
70015;BME280;57358;51.094;6.760;2023-04-21T06:32:54;100882.50;;;7.48;100.00
70015;BME280;57358;51.094;6.760;2023-04-21T06:35:20;100881.91;;;7.64;100.00
70015;BME280;57358;51.094;6.760;2023-04-21T06:37:47;100895.09;;;7.84;100.00
70015;BME280;57358;51.094;6.760;2023-04-21T06:40:13;100852.44;;;7.84;100.00
70015;BME280;57358;51.094;6.760;2023-04-21T06:42:41;100890.41;;;8.16;100.00
70015;BME280;57358;51.094;6.760;2023-04-21T06:45:08;100880.22;;;8.32;100.00
70015;BME280;57358;51.094;6.760;2023-04-21T06:47:35;100688.69;;;7.18;100.00
70015;BME280;57358;51.094;6.760;2023-04-21T06:50:05;100871.03;;;8.44;100.00
70015;BME280;57358;51.094;6.760;2023-04-21T06:52:31;100850.63;;;8.52;100.00
70015;BME280;57358;51.094;6.760;2023-04-21T06:54:58;100855.88;;;8.52;100.00
70015;BME280;57358;51.094;6.760;2023-04-21T06:57:24;100870.16;;;8.65;100.00
70015;BME280;57358;51.094;6.760;2023-04-21T06:59:50;100871.41;;;8.77;100.00
70015;BME280;57358;51.094;6.760;2023-04-21T07:02:17;100816.78;;;8.49;100.00
70015;BME280;57358;51.094;6.760;2023-04-21T07:04:43;100866.75;;;8.84;100.00
70015;BME280;57358;51.094;6.760;2023-04-21T07:07:10;100866.22;;;8.75;100.00
70015;BME280;57358;51.094;6.760;2023-04-21T07:09:36;100869.31;;;8.85;100.00
70015;BME280;57358;51.094;6.760;2023-04-21T07:12:02;100870.69;;;8.94;100.00
70015;BME280;57358;51.094;6.760;2023-04-21T07:14:29;100855.66;;;8.99;100.00
70015;BME280;57358;51.094;6.760;2023-04-21T07:16:55;100858.06;;;9.04;100.00
70015;BME280;57358;51.094;6.760;2023-04-21T07:19:22;100853.53;;;9.07;100.00
70015;BME280;57358;51.094;6.760;2023-04-21T07:21:48;100853.44;;;9.10;100.00
70015;BME280;57358;51.094;6.760;2023-04-21T07:24:15;100846.16;;;9.17;100.00
70015;BME280;57358;51.094;6.760;2023-04-21T07:26:41;100854.72;;;9.21;100.00
70015;BME280;57358;51.094;6.760;2023-04-21T07:29:08;100855.06;;;9.32;100.00
70015;BME280;57358;51.094;6.760;2023-04-21T07:31:34;100821.41;;;9.24;100.00
70015;BME280;57358;51.094;6.760;2023-04-21T07:34:01;100804.75;;;9.25;100.00
70015;BME280;57358;51.094;6.760;2023-04-21T07:36:27;100855.84;;;9.54;100.00
70015;BME280;57358;51.094;6.760;2023-04-21T07:38:56;100855.63;;;9.59;100.00
70015;BME280;57358;51.094;6.760;2023-04-21T07:41:22;100854.34;;;9.68;100.00
70015;BME280;57358;51.094;6.760;2023-04-21T07:43:49;100849.53;;;9.96;100.00
70015;BME280;57358;51.094;6.760;2023-04-21T07:46:18;100845.09;;;10.16;100.00
70015;BME280;57358;51.094;6.760;2023-04-21T07:48:45;100836.28;;;10.36;100.00
70015;BME280;57358;51.094;6.760;2023-04-21T07:51:11;100841.19;;;10.61;100.00
70015;BME280;57358;51.094;6.760;2023-04-21T07:53:38;100828.06;;;10.78;100.00
70015;BME280;57358;51.094;6.760;2023-04-21T07:56:04;100820.53;;;10.88;100.00
70015;BME280;57358;51.094;6.760;2023-04-21T07:58:32;100810.91;;;10.71;100.00
70015;BME280;57358;51.094;6.760;2023-04-21T08:00:58;100814.06;;;10.78;100.00
70015;BME280;57358;51.094;6.760;2023-04-21T08:03:25;100602.28;;;9.25;100.00
70015;BME280;57358;51.094;6.760;2023-04-21T08:05:52;100752.47;;;10.15;100.00
70015;BME280;57358;51.094;6.760;2023-04-21T08:08:19;100803.50;;;10.62;100.00
70015;BME280;57358;51.094;6.760;2023-04-21T08:10:47;100808.22;;;10.73;100.00
70015;BME280;57358;51.094;6.760;2023-04-21T08:13:13;100799.13;;;10.63;100.00
70015;BME280;57358;51.094;6.760;2023-04-21T08:15:39;100796.81;;;10.56;100.00
70015;BME280;57358;51.094;6.760;2023-04-21T08:18:07;100800.09;;;10.60;100.00
70015;BME280;57358;51.094;6.760;2023-04-21T08:20:33;100805.09;;;10.82;100.00
70015;BME280;57358;51.094;6.760;2023-04-21T08:23:00;100803.84;;;11.07;100.00
70015;BME280;57358;51.094;6.760;2023-04-21T08:25:26;100809.03;;;11.24;100.00
70015;BME280;57358;51.094;6.760;2023-04-21T08:27:53;100796.53;;;11.29;100.00
70015;BME280;57358;51.094;6.760;2023-04-21T08:30:19;100749.19;;;10.80;100.00
70015;BME280;57358;51.094;6.760;2023-04-21T08:32:46;100759.16;;;10.91;100.00
70015;BME280;57358;51.094;6.760;2023-04-21T08:35:12;100784.41;;;11.27;100.00
70015;BME280;57358;51.094;6.760;2023-04-21T08:37:38;100777.38;;;11.43;100.00
70015;BME280;57358;51.094;6.760;2023-04-21T08:40:05;100780.69;;;11.47;100.00
70015;BME280;57358;51.094;6.760;2023-04-21T08:42:33;100765.94;;;11.60;100.00
70015;BME280;57358;51.094;6.760;2023-04-21T08:44:59;100765.34;;;11.87;100.00
70015;BME280;57358;51.094;6.760;2023-04-21T08:47:26;100742.09;;;11.79;100.00
70015;BME280;57358;51.094;6.760;2023-04-21T08:49:53;100744.19;;;11.88;100.00
70015;BME280;57358;51.094;6.760;2023-04-21T08:52:20;100759.09;;;12.20;100.00
70015;BME280;57358;51.094;6.760;2023-04-21T08:54:47;100762.06;;;12.88;100.00
70015;BME280;57358;51.094;6.760;2023-04-21T08:57:17;100706.94;;;12.85;97.12
70015;BME280;57358;51.094;6.760;2023-04-21T08:59:44;100701.38;;;13.04;93.27
70015;BME280;57358;51.094;6.760;2023-04-21T09:02:14;100552.75;;;12.24;90.84
70015;BME280;57358;51.094;6.760;2023-04-21T09:04:43;100660.81;;;12.92;90.42
70015;BME280;57358;51.094;6.760;2023-04-21T09:07:11;100668.47;;;12.97;91.63
70015;BME280;57358;51.094;6.760;2023-04-21T09:09:54;100608.47;;;12.73;91.57
70015;BME280;57358;51.094;6.760;2023-04-21T09:12:21;100623.69;;;12.83;90.35
70015;BME280;57358;51.094;6.760;2023-04-21T09:14:47;100661.06;;;13.16;89.01
70015;BME280;57358;51.094;6.760;2023-04-21T09:17:16;100656.53;;;13.18;89.09
70015;BME280;57358;51.094;6.760;2023-04-21T09:19:43;100670.78;;;13.57;90.35
70015;BME280;57358;51.094;6.760;2023-04-21T09:22:14;100577.75;;;13.28;88.47
70015;BME280;57358;51.094;6.760;2023-04-21T09:24:48;100652.78;;;13.77;87.23
70015;BME280;57358;51.094;6.760;2023-04-21T09:27:15;100646.56;;;13.78;88.71
70015;BME280;57358;51.094;6.760;2023-04-21T09:29:48;100622.75;;;13.52;86.79
70015;BME280;57358;51.094;6.760;2023-04-21T09:32:18;100637.38;;;13.71;86.74
70015;BME280;57358;51.094;6.760;2023-04-21T09:34:45;100622.06;;;13.63;86.63
70015;BME280;57358;51.094;6.760;2023-04-21T09:37:13;100606.28;;;13.22;86.55
70015;BME280;57358;51.094;6.760;2023-04-21T09:39:44;100633.78;;;13.17;89.93
70015;BME280;57358;51.094;6.760;2023-04-21T09:42:30;100645.53;;;13.26;93.45
70015;BME280;57358;51.094;6.760;2023-04-21T09:44:57;100636.50;;;13.57;90.03
70015;BME280;57358;51.094;6.760;2023-04-21T09:47:48;100613.78;;;13.42;88.16
70015;BME280;57358;51.094;6.760;2023-04-21T09:50:16;100626.50;;;13.35;89.39
70015;BME280;57358;51.094;6.760;2023-04-21T09:53:05;100624.53;;;13.25;90.21
70015;BME280;57358;51.094;6.760;2023-04-21T09:55:33;100597.72;;;13.18;88.96
70015;BME280;57358;51.094;6.760;2023-04-21T09:58:01;100619.56;;;13.20;90.58
70015;BME280;57358;51.094;6.760;2023-04-21T10:00:28;100610.97;;;13.31;89.78
70015;BME280;57358;51.094;6.760;2023-04-21T10:02:58;100594.97;;;13.34;89.91
70015;BME280;57358;51.094;6.760;2023-04-21T10:05:27;100601.31;;;13.31;89.48
70015;BME280;57358;51.094;6.760;2023-04-21T10:07:54;100591.50;;;12.92;91.11
70015;BME280;57358;51.094;6.760;2023-04-21T10:10:24;100598.53;;;13.06;92.01
70015;BME280;57358;51.094;6.760;2023-04-21T10:12:51;100619.94;;;13.55;91.68
70015;BME280;57358;51.094;6.760;2023-04-21T10:15:47;100609.91;;;14.13;88.36
70015;BME280;57358;51.094;6.760;2023-04-21T10:20:52;100580.63;;;13.65;88.90
70015;BME280;57358;51.094;6.760;2023-04-21T10:26:19;100562.53;;;13.46;87.97
70015;BME280;57358;51.094;6.760;2023-04-21T10:44:43;100518.78;;;14.33;83.36
70015;BME280;57358;51.094;6.760;2023-04-21T10:47:10;100488.38;;;14.28;81.88
70015;BME280;57358;51.094;6.760;2023-04-21T10:49:37;100458.00;;;13.96;80.85
70015;BME280;57358;51.094;6.760;2023-04-21T10:52:06;100470.81;;;13.90;82.16
70015;BME280;57358;51.094;6.760;2023-04-21T10:55:03;100459.72;;;13.85;82.16
70015;BME280;57358;51.094;6.760;2023-04-21T10:57:33;100303.34;;;12.82;83.18
70015;BME280;57358;51.094;6.760;2023-04-21T11:00:00;100431.38;;;13.50;83.21
70015;BME280;57358;51.094;6.760;2023-04-21T11:02:27;100445.06;;;13.55;84.33
70015;BME280;57358;51.094;6.760;2023-04-21T11:04:56;100465.94;;;13.84;85.09
70015;BME280;57358;51.094;6.760;2023-04-21T11:07:23;100456.72;;;14.15;83.68
70015;BME280;57358;51.094;6.760;2023-04-21T11:10:15;100433.78;;;14.52;80.25
70015;BME280;57358;51.094;6.760;2023-04-21T11:12:42;100429.78;;;14.84;81.22
70015;BME280;57358;51.094;6.760;2023-04-21T11:15:10;100403.09;;;14.75;79.71
70015;BME280;57358;51.094;6.760;2023-04-21T11:17:38;100357.16;;;14.17;81.50
70015;BME280;57358;51.094;6.760;2023-04-21T11:20:08;100383.88;;;14.25;80.40
70015;BME280;57358;51.094;6.760;2023-04-21T11:22:36;100342.63;;;14.11;78.67
70015;BME280;57358;51.094;6.760;2023-04-21T11:25:03;100379.63;;;14.47;78.35
70015;BME280;57358;51.094;6.760;2023-04-21T11:27:29;100371.00;;;14.69;77.24
70015;BME280;57358;51.094;6.760;2023-04-21T11:29:56;100384.50;;;14.88;77.95
70015;BME280;57358;51.094;6.760;2023-04-21T11:32:23;100353.44;;;15.03;76.65
70015;BME280;57358;51.094;6.760;2023-04-21T11:34:49;100306.19;;;14.87;74.94
70015;BME280;57358;51.094;6.760;2023-04-21T11:37:24;100265.84;;;14.39;75.88
70015;BME280;57358;51.094;6.760;2023-04-21T11:39:59;100322.78;;;15.01;75.78
70015;BME280;57358;51.094;6.760;2023-04-21T11:42:26;100307.91;;;15.45;74.01
70015;BME280;57358;51.094;6.760;2023-04-21T11:44:54;100252.03;;;15.38;70.86
70015;BME280;57358;51.094;6.760;2023-04-21T11:47:26;100203.13;;;15.21;71.52
70015;BME280;57358;51.094;6.760;2023-04-21T11:49:55;100206.09;;;15.62;69.00
70015;BME280;57358;51.094;6.760;2023-04-21T11:52:27;100206.97;;;15.94;68.16
70015;BME280;57358;51.094;6.760;2023-04-21T11:57:22;100197.75;;;16.31;67.01
70015;BME280;57358;51.094;6.760;2023-04-21T11:59:50;100211.81;;;16.52;68.01
70015;BME280;57358;51.094;6.760;2023-04-21T12:02:21;100198.19;;;17.19;65.09
70015;BME280;57358;51.094;6.760;2023-04-21T12:07:36;100067.56;;;17.75;58.90
70015;BME280;57358;51.094;6.760;2023-04-21T12:10:11;99989.78;;;17.55;57.61
70015;BME280;57358;51.094;6.760;2023-04-21T12:12:39;99922.88;;;16.85;57.73
70015;BME280;57358;51.094;6.760;2023-04-21T12:15:07;99983.63;;;16.67;59.66
70015;BME280;57358;51.094;6.760;2023-04-21T12:17:46;100004.56;;;16.20;61.13
70015;BME280;57358;51.094;6.760;2023-04-21T12:20:18;100043.19;;;16.01;62.94
70015;BME280;57358;51.094;6.760;2023-04-21T12:22:45;99940.63;;;15.42;62.18
70015;BME280;57358;51.094;6.760;2023-04-21T12:25:12;100005.25;;;15.70;63.17
70015;BME280;57358;51.094;6.760;2023-04-21T12:27:49;100098.22;;;15.98;64.95
70015;BME280;57358;51.094;6.760;2023-04-21T12:30:16;100069.28;;;16.06;64.26
70015;BME280;57358;51.094;6.760;2023-04-21T12:32:45;100077.44;;;16.54;63.04
70015;BME280;57358;51.094;6.760;2023-04-21T12:35:13;100034.88;;;16.87;60.44
70015;BME280;57358;51.094;6.760;2023-04-21T12:37:40;99988.97;;;17.06;59.26
70015;BME280;57358;51.094;6.760;2023-04-21T12:40:06;99964.66;;;16.71;59.29
70015;BME280;57358;51.094;6.760;2023-04-21T12:42:33;100027.38;;;17.31;59.13
70015;BME280;57358;51.094;6.760;2023-04-21T12:45:03;100094.13;;;17.94;59.68
70015;BME280;57358;51.094;6.760;2023-04-21T12:47:30;100015.06;;;17.59;58.82
70015;BME280;57358;51.094;6.760;2023-04-21T12:49:57;99806.22;;;15.78;58.99
70015;BME280;57358;51.094;6.760;2023-04-21T12:52:23;99976.59;;;15.96;60.85
70015;BME280;57358;51.094;6.760;2023-04-21T12:54:50;100067.09;;;16.51;60.79
70015;BME280;57358;51.094;6.760;2023-04-21T12:57:16;99966.53;;;15.90;60.84
70015;BME280;57358;51.094;6.760;2023-04-21T12:59:43;100094.16;;;16.55;61.50
70015;BME280;57358;51.094;6.760;2023-04-21T13:02:11;100135.22;;;17.01;60.81
70015;BME280;57358;51.094;6.760;2023-04-21T13:04:38;100066.72;;;17.06;59.14
70015;BME280;57358;51.094;6.760;2023-04-21T13:07:07;100042.56;;;17.09;58.00
70015;BME280;57358;51.094;6.760;2023-04-21T13:09:35;100094.97;;;17.56;58.07
70015;BME280;57358;51.094;6.760;2023-04-21T13:12:02;99972.25;;;16.95;57.60
70015;BME280;57358;51.094;6.760;2023-04-21T13:14:28;100023.19;;;17.09;57.30
70015;BME280;57358;51.094;6.760;2023-04-21T13:16:55;100032.66;;;17.02;57.68
70015;BME280;57358;51.094;6.760;2023-04-21T13:19:22;100076.97;;;16.80;58.86
70015;BME280;57358;51.094;6.760;2023-04-21T13:21:48;99985.63;;;16.24;58.07